Time;durP1;ratioP1;P1;durP2;ratioP2;P2;SDS_P1;SDS_P2;PMS_P1;PMS_P2;Temp;Humidity;BMP_temperature;BMP_pressure;BME280_temperature;BME280_humidity;BME280_pressure;Samples;Min_cycle;Max_cycle;Signal;HPM_P1;HPM_P2
2023/01/29 00:01:51;;;;;;;44.30;40.00;;;;;;;;;;5105265;28;20218;-82
2023/01/29 00:04:18;;;;;;;43.33;38.92;;;;;;;;;;5105946;28;20208;-82
2023/01/29 00:06:45;;;;;;;43.50;39.40;;;;;;;;;;5106252;28;20656;-81
2023/01/29 00:09:12;;;;;;;42.65;38.78;;;;;;;;;;5105250;28;20207;-82
2023/01/29 00:11:41;;;;;;;44.58;40.35;;;;;;;;;;5104315;28;20227;-81
2023/01/29 00:14:08;;;;;;;44.72;40.35;;;;;;;;;;5105047;28;20593;-82
2023/01/29 00:16:35;;;;;;;43.17;39.10;;;;;;;;;;5105454;28;20202;-82
2023/01/29 00:19:02;;;;;;;43.35;39.03;;;;;;;;;;5104508;28;20219;-82
2023/01/29 00:21:30;;;;;;;43.92;39.42;;;;;;;;;;5104200;28;20207;-82
2023/01/29 00:23:57;;;;;;;43.75;39.50;;;;;;;;;;5105414;28;20205;-82
2023/01/29 00:26:24;;;;;;;43.28;38.78;;;;;;;;;;5103976;28;20226;-81
2023/01/29 00:28:53;;;;;;;43.15;38.95;;;;;;;;;;5104414;28;20208;-82
2023/01/29 00:31:20;;;;;;;43.13;38.85;;;;;;;;;;5104155;28;20236;-82
2023/01/29 00:33:48;;;;;;;45.60;40.97;;;;;;;;;;5104616;28;20227;-82
2023/01/29 00:36:15;;;;;;;44.80;40.53;;;;;;;;;;5105223;28;20231;-82
2023/01/29 00:38:43;;;;;;;43.38;39.30;;;;;;;;;;5104605;28;20210;-82
2023/01/29 00:46:42;;;;;;;42.88;38.67;;;;;;;;;;5104419;28;20187;-83
2023/01/29 00:49:09;;;;;;;44.58;40.00;;;;;;;;;;5104515;28;20207;-81
2023/01/29 00:51:37;;;;;;;44.72;39.90;;;;;;;;;;5103627;28;20264;-82
2023/01/29 00:54:05;;;;;;;43.72;39.40;;;;;;;;;;5103622;28;20252;-81
2023/01/29 00:56:33;;;;;;;42.72;38.42;;;;;;;;;;5104082;28;20303;-82
2023/01/29 00:59:01;;;;;;;43.35;39.15;;;;;;;;;;5103808;28;20209;-82
2023/01/29 01:04:13;;;;;;;46.60;40.45;;;;;;;;;;5102418;28;20549;-82
2023/01/29 01:06:41;;;;;;;41.88;37.83;;;;;;;;;;5103406;28;20233;-82
2023/01/29 01:11:54;;;;;;;44.13;39.75;;;;;;;;;;5102137;28;20288;-82
2023/01/29 01:14:22;;;;;;;44.08;39.75;;;;;;;;;;5102980;28;20203;-82
2023/01/29 01:16:49;;;;;;;43.85;39.47;;;;;;;;;;5102653;28;20205;-82
2023/01/29 01:19:16;;;;;;;42.47;38.25;;;;;;;;;;5102372;28;20210;-81
2023/01/29 01:21:46;;;;;;;46.20;41.40;;;;;;;;;;5101106;28;20203;-82
2023/01/29 01:24:13;;;;;;;43.90;39.00;;;;;;;;;;5102589;28;20202;-83
2023/01/29 01:26:40;;;;;;;43.15;38.75;;;;;;;;;;5102019;28;20266;-82
2023/01/29 01:29:07;;;;;;;42.97;38.38;;;;;;;;;;5102124;28;20248;-81
2023/01/29 01:31:36;;;;;;;43.58;39.10;;;;;;;;;;5101527;28;20230;-82
2023/01/29 01:34:03;;;;;;;42.35;38.13;;;;;;;;;;5102443;28;20204;-82
2023/01/29 01:36:31;;;;;;;43.65;39.00;;;;;;;;;;5102418;28;20223;-82
2023/01/29 01:38:58;;;;;;;43.78;39.20;;;;;;;;;;5101164;28;20214;-82
2023/01/29 01:41:25;;;;;;;44.85;40.08;;;;;;;;;;5101464;28;20195;-82
2023/01/29 01:43:54;;;;;;;42.47;38.10;;;;;;;;;;5101790;28;20275;-82
2023/01/29 01:46:21;;;;;;;41.20;36.80;;;;;;;;;;5101565;28;20222;-81
2023/01/29 01:48:52;;;;;;;43.00;38.33;;;;;;;;;;5102349;28;20211;-81
2023/01/29 01:51:19;;;;;;;44.45;39.60;;;;;;;;;;5101495;28;20273;-83
2023/01/29 01:53:50;;;;;;;46.67;41.80;;;;;;;;;;5102111;28;20229;-83
2023/01/29 01:56:19;;;;;;;40.17;36.30;;;;;;;;;;5101739;28;20223;-82
2023/01/29 01:58:50;;;;;;;42.00;37.70;;;;;;;;;;5102058;28;20203;-82
2023/01/29 02:01:17;;;;;;;41.97;37.88;;;;;;;;;;5101906;28;20188;-83
2023/01/29 02:09:32;;;;;;;41.08;36.72;;;;;;;;;;5102642;28;20180;-81
2023/01/29 02:11:59;;;;;;;43.58;39.17;;;;;;;;;;5102184;28;20211;-82
2023/01/29 02:14:27;;;;;;;42.80;38.35;;;;;;;;;;5103275;28;20231;-82
2023/01/29 02:16:54;;;;;;;43.13;39.08;;;;;;;;;;5102620;28;20215;-82
2023/01/29 02:19:24;;;;;;;44.15;39.25;;;;;;;;;;5102346;28;20202;-82
2023/01/29 02:22:06;;;;;;;43.60;39.30;;;;;;;;;;5100555;28;20252;-82
2023/01/29 02:24:41;;;;;;;42.97;38.75;;;;;;;;;;5102148;28;20230;-82
2023/01/29 02:27:10;;;;;;;43.15;38.55;;;;;;;;;;5102567;28;20202;-81
2023/01/29 02:29:45;;;;;;;43.58;39.10;;;;;;;;;;5102490;28;20260;-81
2023/01/29 02:32:17;;;;;;;43.40;38.80;;;;;;;;;;5101692;28;20642;-81
2023/01/29 02:37:36;;;;;;;42.80;38.22;;;;;;;;;;5101908;28;20263;-82
2023/01/29 02:40:09;;;;;;;43.63;39.00;;;;;;;;;;5102296;28;20225;-82
2023/01/29 02:42:39;;;;;;;45.53;39.83;;;;;;;;;;5101050;28;20180;-81
2023/01/29 02:45:10;;;;;;;43.17;38.72;;;;;;;;;;5101402;28;20264;-80
2023/01/29 02:47:41;;;;;;;42.47;37.83;;;;;;;;;;5102098;28;20195;-81
2023/01/29 02:50:12;;;;;;;43.00;38.60;;;;;;;;;;5101451;28;20202;-82
2023/01/29 02:52:43;;;;;;;43.58;38.97;;;;;;;;;;5100765;28;20223;-81
2023/01/29 02:55:12;;;;;;;44.03;39.35;;;;;;;;;;5101914;28;20228;-80
2023/01/29 02:57:41;;;;;;;42.75;38.33;;;;;;;;;;5101641;28;20206;-82
2023/01/29 03:00:12;;;;;;;43.47;38.40;;;;;;;;;;5100953;28;20203;-81
2023/01/29 03:02:42;;;;;;;46.38;40.13;;;;;;;;;;5101540;28;20545;-82
2023/01/29 03:05:12;;;;;;;43.65;39.05;;;;;;;;;;5101975;28;20222;-81
2023/01/29 03:07:41;;;;;;;46.13;41.13;;;;;;;;;;5102134;28;20242;-81
2023/01/29 03:10:10;;;;;;;44.28;39.47;;;;;;;;;;5105614;28;20289;-83
2023/01/29 03:12:38;;;;;;;44.03;39.40;;;;;;;;;;5108842;28;20222;-82
2023/01/29 03:15:11;;;;;;;44.95;38.00;;;;;;;;;;5110538;28;20224;-82
2023/01/29 03:17:42;;;;;;;42.45;38.10;;;;;;;;;;5104834;28;20709;-82
2023/01/29 03:20:13;;;;;;;43.20;38.70;;;;;;;;;;5103513;28;20203;-82
2023/01/29 03:22:41;;;;;;;42.53;38.05;;;;;;;;;;5102691;28;20196;-81
2023/01/29 03:33:32;;;;;;;40.90;36.70;;;;;;;;;;5081999;28;20226;-82
2023/01/29 03:36:02;;;;;;;42.92;38.53;;;;;;;;;;5082219;28;20323;-81
2023/01/29 03:38:30;;;;;;;43.22;38.63;;;;;;;;;;5081714;28;20193;-82
2023/01/29 03:40:59;;;;;;;45.42;38.53;;;;;;;;;;5081382;28;20203;-82
2023/01/29 03:43:31;;;;;;;43.55;38.85;;;;;;;;;;5081279;28;20208;-81
2023/01/29 03:46:01;;;;;;;43.30;38.90;;;;;;;;;;5081581;28;20228;-82
2023/01/29 03:48:33;;;;;;;44.63;39.95;;;;;;;;;;5081292;28;20238;-80
2023/01/29 03:51:03;;;;;;;43.72;39.00;;;;;;;;;;5081727;28;20269;-81
2023/01/29 03:53:32;;;;;;;46.85;39.03;;;;;;;;;;5081207;28;20209;-82
2023/01/29 03:56:01;;;;;;;42.70;38.33;;;;;;;;;;5080830;28;20628;-81
2023/01/29 03:58:33;;;;;;;44.05;39.35;;;;;;;;;;5080972;28;20205;-82
2023/01/29 04:01:03;;;;;;;44.63;38.95;;;;;;;;;;5080726;28;20617;-82
2023/01/29 04:03:34;;;;;;;43.40;39.00;;;;;;;;;;5079409;28;20208;-82
2023/01/29 04:06:08;;;;;;;45.65;40.42;;;;;;;;;;5079637;28;20220;-82
2023/01/29 04:08:37;;;;;;;42.45;38.05;;;;;;;;;;5079920;28;20204;-83
2023/01/29 04:11:07;;;;;;;41.53;37.03;;;;;;;;;;5080897;28;20223;-82
2023/01/29 04:13:34;;;;;;;43.25;38.65;;;;;;;;;;5080474;28;20208;-82
2023/01/29 04:16:02;;;;;;;44.33;39.50;;;;;;;;;;5080431;28;20233;-82
2023/01/29 04:18:29;;;;;;;44.28;39.50;;;;;;;;;;5080358;28;20196;-82
2023/01/29 04:20:58;;;;;;;43.05;38.47;;;;;;;;;;5080026;28;20266;-82
2023/01/29 04:23:26;;;;;;;42.47;37.83;;;;;;;;;;5080203;28;20666;-82
2023/01/29 04:26:09;;;;;;;42.08;37.47;;;;;;;;;;5080622;28;20228;-82
2023/01/29 04:28:44;;;;;;;41.15;36.75;;;;;;;;;;5080468;28;20631;-81
2023/01/29 04:31:12;;;;;;;42.33;37.88;;;;;;;;;;5080062;28;20204;-83
2023/01/29 04:33:44;;;;;;;43.17;37.15;;;;;;;;;;5079934;28;20209;-81
2023/01/29 04:36:20;;;;;;;43.90;39.10;;;;;;;;;;5080632;28;20262;-80
2023/01/29 04:38:51;;;;;;;41.50;35.90;;;;;;;;;;5079902;28;20183;-83
2023/01/29 04:41:23;;;;;;;44.20;38.45;;;;;;;;;;5079668;28;20291;-85
2023/01/29 04:43:59;;;;;;;47.15;39.05;;;;;;;;;;5081058;28;20200;-81
2023/01/29 04:46:30;;;;;;;42.47;37.60;;;;;;;;;;5083255;28;20311;-82
2023/01/29 04:49:01;;;;;;;41.90;36.28;;;;;;;;;;5083526;28;20196;-83
2023/01/29 04:51:35;;;;;;;44.55;39.05;;;;;;;;;;5083009;28;20908;-82
2023/01/29 04:54:09;;;;;;;43.70;38.92;;;;;;;;;;5083756;28;20196;-82
2023/01/29 04:56:39;;;;;;;48.83;39.90;;;;;;;;;;5083669;28;20234;-81
2023/01/29 04:59:08;;;;;;;42.42;37.05;;;;;;;;;;5084166;28;20215;-83
2023/01/29 05:01:36;;;;;;;42.55;37.95;;;;;;;;;;5082901;28;20212;-81
2023/01/29 05:04:05;;;;;;;44.78;38.92;;;;;;;;;;5083284;28;20184;-81
2023/01/29 05:06:36;;;;;;;43.00;35.33;;;;;;;;;;5083588;28;20200;-81
2023/01/29 05:09:04;;;;;;;43.63;38.15;;;;;;;;;;5082939;28;20208;-82
2023/01/29 05:11:31;;;;;;;46.97;38.85;;;;;;;;;;5083248;28;20229;-82
2023/01/29 05:13:59;;;;;;;43.85;37.10;;;;;;;;;;5083031;28;20208;-81
2023/01/29 05:16:27;;;;;;;42.80;38.13;;;;;;;;;;5083552;28;20223;-81
2023/01/29 05:18:54;;;;;;;47.03;40.65;;;;;;;;;;5083223;28;20250;-81
2023/01/29 05:21:25;;;;;;;44.83;38.22;;;;;;;;;;5082607;28;20209;-82
2023/01/29 05:24:11;;;;;;;49.25;40.75;;;;;;;;;;5083689;28;20201;-81
2023/01/29 05:29:23;;;;;;;42.58;37.38;;;;;;;;;;5083388;28;20178;-82
2023/01/29 05:31:50;;;;;;;48.38;40.05;;;;;;;;;;5082775;28;20220;-81
2023/01/29 05:34:17;;;;;;;46.67;38.53;;;;;;;;;;5083025;28;20200;-82
2023/01/29 05:36:44;;;;;;;44.45;39.65;;;;;;;;;;5083484;28;20727;-82
2023/01/29 05:39:12;;;;;;;44.40;37.67;;;;;;;;;;5082759;28;20201;-82
2023/01/29 05:41:39;;;;;;;43.35;38.55;;;;;;;;;;5081741;28;20739;-82
2023/01/29 05:44:06;;;;;;;50.13;37.70;;;;;;;;;;5082805;28;20198;-82
2023/01/29 05:46:33;;;;;;;41.30;36.80;;;;;;;;;;5083502;28;20205;-82
2023/01/29 05:49:00;;;;;;;50.72;37.08;;;;;;;;;;5082168;28;20209;-82
2023/01/29 05:51:27;;;;;;;47.13;38.72;;;;;;;;;;5081885;28;20258;-82
2023/01/29 05:53:54;;;;;;;45.92;39.22;;;;;;;;;;5082556;28;20207;-82
2023/01/29 05:56:24;;;;;;;48.15;39.35;;;;;;;;;;5081342;28;20273;-82
2023/01/29 05:58:51;;;;;;;45.53;38.35;;;;;;;;;;5082635;28;20230;-82
2023/01/29 06:01:19;;;;;;;44.85;37.80;;;;;;;;;;5082146;28;20246;-83
2023/01/29 06:03:46;;;;;;;44.15;37.30;;;;;;;;;;5081946;28;20215;-82
2023/01/29 06:06:13;;;;;;;45.90;40.13;;;;;;;;;;5082562;28;20227;-83
2023/01/29 06:08:41;;;;;;;45.15;39.20;;;;;;;;;;5082479;28;20201;-81
2023/01/29 06:11:08;;;;;;;47.50;40.38;;;;;;;;;;5082767;28;20209;-82
2023/01/29 06:13:37;;;;;;;43.17;38.30;;;;;;;;;;5082055;28;20352;-82
2023/01/29 06:16:05;;;;;;;48.08;40.10;;;;;;;;;;5082731;28;20247;-83
2023/01/29 06:18:32;;;;;;;46.03;37.60;;;;;;;;;;5081819;28;20188;-81
2023/01/29 06:21:01;;;;;;;47.75;42.67;;;;;;;;;;5081861;28;20210;-81
2023/01/29 06:23:28;;;;;;;47.40;40.80;;;;;;;;;;5081719;28;20263;-81
2023/01/29 06:25:55;;;;;;;49.13;40.15;;;;;;;;;;5081467;28;20254;-83
2023/01/29 06:28:22;;;;;;;49.20;41.08;;;;;;;;;;5081848;28;20254;-82
2023/01/29 06:30:50;;;;;;;45.10;38.40;;;;;;;;;;5081637;28;20265;-81
2023/01/29 06:33:17;;;;;;;49.22;40.50;;;;;;;;;;5081091;28;20223;-83
2023/01/29 06:35:44;;;;;;;44.60;39.83;;;;;;;;;;5081472;28;20228;-82
2023/01/29 06:38:11;;;;;;;48.90;40.90;;;;;;;;;;5081736;28;20204;-81
2023/01/29 06:40:38;;;;;;;51.42;41.03;;;;;;;;;;5081864;28;20270;-82
2023/01/29 06:43:05;;;;;;;49.45;40.80;;;;;;;;;;5081098;28;20200;-82
2023/01/29 06:45:32;;;;;;;49.65;43.45;;;;;;;;;;5081165;28;20228;-82
2023/01/29 06:48:01;;;;;;;46.65;39.83;;;;;;;;;;5081218;28;20189;-81
2023/01/29 06:50:28;;;;;;;42.50;37.95;;;;;;;;;;5081593;28;20260;-83
2023/01/29 06:52:55;;;;;;;49.78;40.33;;;;;;;;;;5080920;28;20219;-82
2023/01/29 06:55:23;;;;;;;46.03;39.53;;;;;;;;;;5081340;28;20706;-83
2023/01/29 06:57:50;;;;;;;52.20;42.00;;;;;;;;;;5081193;28;20603;-81
2023/01/29 07:00:17;;;;;;;54.13;42.45;;;;;;;;;;5081563;28;20201;-83
2023/01/29 07:02:44;;;;;;;50.47;42.25;;;;;;;;;;5079768;28;20686;-82
2023/01/29 07:05:12;;;;;;;46.15;38.35;;;;;;;;;;5081152;28;20633;-82
2023/01/29 07:07:39;;;;;;;50.03;41.35;;;;;;;;;;5081023;28;20607;-81
2023/01/29 07:10:07;;;;;;;45.17;38.95;;;;;;;;;;5080953;28;20208;-83
2023/01/29 07:12:34;;;;;;;49.83;40.53;;;;;;;;;;5080537;28;20228;-83
2023/01/29 07:15:01;;;;;;;48.72;39.88;;;;;;;;;;5080095;28;20224;-82
2023/01/29 07:17:28;;;;;;;49.72;40.33;;;;;;;;;;5081008;28;20678;-81
2023/01/29 07:19:55;;;;;;;47.60;40.17;;;;;;;;;;5080933;28;20237;-82
2023/01/29 07:22:24;;;;;;;46.13;38.15;;;;;;;;;;5079889;28;20207;-82
2023/01/29 07:24:50;;;;;;;56.00;41.42;;;;;;;;;;5086806;28;20236;-82
2023/01/29 07:27:17;;;;;;;47.72;40.15;;;;;;;;;;5087343;28;20203;-82
2023/01/29 07:29:44;;;;;;;56.13;41.50;;;;;;;;;;5084869;28;20204;-81
2023/01/29 07:32:11;;;;;;;50.70;42.40;;;;;;;;;;5082178;28;20221;-82
2023/01/29 07:34:39;;;;;;;50.22;41.55;;;;;;;;;;5082546;28;20226;-82
2023/01/29 07:37:06;;;;;;;52.35;41.45;;;;;;;;;;5081792;28;20639;-82
2023/01/29 07:39:35;;;;;;;53.15;41.47;;;;;;;;;;5082184;28;20200;-81
2023/01/29 07:42:02;;;;;;;46.58;39.97;;;;;;;;;;5080923;28;20511;-81
2023/01/29 07:44:29;;;;;;;42.80;37.97;;;;;;;;;;5074731;28;20228;-77
2023/01/29 07:46:56;;;;;;;48.33;39.90;;;;;;;;;;5072769;28;20196;-77
2023/01/29 07:49:23;;;;;;;49.38;41.50;;;;;;;;;;5073000;28;20204;-78
2023/01/29 07:51:50;;;;;;;58.85;44.70;;;;;;;;;;5072464;28;20244;-78
2023/01/29 07:54:17;;;;;;;57.75;43.50;;;;;;;;;;5072938;28;20227;-77
2023/01/29 07:56:45;;;;;;;53.53;40.33;;;;;;;;;;5078518;28;20256;-82
2023/01/29 07:59:12;;;;;;;48.00;40.60;;;;;;;;;;5080798;28;20231;-82
2023/01/29 08:01:39;;;;;;;57.15;41.10;;;;;;;;;;5079206;28;20222;-79
2023/01/29 08:04:06;;;;;;;48.08;40.78;;;;;;;;;;5073336;28;20191;-78
2023/01/29 08:06:33;;;;;;;51.08;42.00;;;;;;;;;;5073166;28;20203;-78
2023/01/29 08:09:00;;;;;;;54.28;43.45;;;;;;;;;;5073099;28;20206;-78
2023/01/29 08:11:27;;;;;;;50.83;42.70;;;;;;;;;;5072412;28;20205;-78
2023/01/29 08:13:56;;;;;;;52.58;42.03;;;;;;;;;;5072620;28;20274;-77
2023/01/29 08:16:23;;;;;;;70.25;49.28;;;;;;;;;;5072697;28;20219;-77
2023/01/29 08:18:50;;;;;;;72.20;47.72;;;;;;;;;;5072749;28;20262;-78
2023/01/29 08:21:17;;;;;;;56.10;43.22;;;;;;;;;;5075326;28;20196;-79
2023/01/29 08:23:44;;;;;;;45.05;38.50;;;;;;;;;;5076387;28;20654;-77
2023/01/29 08:26:11;;;;;;;49.13;40.95;;;;;;;;;;5076187;28;20593;-77
2023/01/29 08:28:38;;;;;;;51.15;42.22;;;;;;;;;;5076762;28;20212;-78
2023/01/29 08:31:12;;;;;;;56.80;42.95;;;;;;;;;;5076600;28;20203;-77
2023/01/29 08:33:39;;;;;;;54.58;41.45;;;;;;;;;;5076089;28;20266;-78
2023/01/29 08:36:08;;;;;;;56.78;44.17;;;;;;;;;;5076378;28;20226;-78
2023/01/29 08:38:34;;;;;;;57.20;43.78;;;;;;;;;;5076412;28;20242;-78
2023/01/29 08:41:02;;;;;;;55.85;45.80;;;;;;;;;;5076454;28;20226;-77
2023/01/29 08:43:29;;;;;;;56.75;46.55;;;;;;;;;;5075820;28;20245;-78
2023/01/29 08:45:56;;;;;;;55.70;44.78;;;;;;;;;;5076166;28;20224;-77
2023/01/29 08:48:24;;;;;;;57.58;43.63;;;;;;;;;;5076740;28;20238;-77
2023/01/29 08:50:52;;;;;;;56.38;45.95;;;;;;;;;;5076327;28;20207;-77
2023/01/29 08:53:23;;;;;;;52.92;42.75;;;;;;;;;;5075598;28;20297;-78
2023/01/29 08:55:50;;;;;;;55.53;44.30;;;;;;;;;;5076436;28;20224;-78
2023/01/29 08:58:17;;;;;;;54.63;45.25;;;;;;;;;;5077994;28;20205;-78
2023/01/29 09:00:44;;;;;;;55.17;44.17;;;;;;;;;;5076052;28;20204;-78
2023/01/29 09:03:11;;;;;;;61.65;45.38;;;;;;;;;;5075563;28;20208;-78
2023/01/29 09:05:39;;;;;;;54.95;43.17;;;;;;;;;;5076176;28;20278;-78
2023/01/29 09:08:07;;;;;;;54.05;42.55;;;;;;;;;;5076147;28;20739;-78
2023/01/29 09:10:34;;;;;;;56.72;43.83;;;;;;;;;;5075706;28;20625;-78
2023/01/29 09:13:02;;;;;;;53.15;42.95;;;;;;;;;;5075663;28;20215;-77
2023/01/29 09:15:29;;;;;;;55.38;45.38;;;;;;;;;;5076767;28;20621;-78
2023/01/29 09:17:56;;;;;;;52.50;43.33;;;;;;;;;;5076205;28;20260;-78
2023/01/29 09:20:22;;;;;;;58.65;43.40;;;;;;;;;;5076928;28;20205;-78
2023/01/29 09:22:52;;;;;;;55.92;43.15;;;;;;;;;;5074164;28;20204;-77
2023/01/29 09:25:19;;;;;;;54.88;44.22;;;;;;;;;;5075618;28;20270;-77
2023/01/29 09:27:46;;;;;;;53.65;44.35;;;;;;;;;;5075129;28;20209;-76
2023/01/29 09:30:14;;;;;;;58.65;44.05;;;;;;;;;;5075337;28;20209;-77
2023/01/29 09:32:41;;;;;;;54.55;42.70;;;;;;;;;;5074837;28;20210;-77
2023/01/29 09:35:08;;;;;;;51.53;41.97;;;;;;;;;;5074409;28;20273;-77
2023/01/29 09:37:35;;;;;;;59.45;44.40;;;;;;;;;;5075153;28;20205;-78
2023/01/29 09:40:04;;;;;;;53.13;42.90;;;;;;;;;;5075370;28;20200;-78
2023/01/29 09:42:34;;;;;;;50.05;43.42;;;;;;;;;;5074241;28;20670;-78
2023/01/29 09:45:03;;;;;;;55.72;46.17;;;;;;;;;;5074764;28;20660;-78
2023/01/29 09:47:32;;;;;;;54.78;43.33;;;;;;;;;;5075312;28;20606;-77
2023/01/29 09:50:01;;;;;;;51.22;42.60;;;;;;;;;;5074982;28;20611;-78
2023/01/29 09:52:30;;;;;;;53.55;45.33;;;;;;;;;;5074463;28;20285;-77
2023/01/29 09:55:01;;;;;;;55.25;46.30;;;;;;;;;;5074510;28;20223;-77
2023/01/29 09:57:32;;;;;;;57.00;44.08;;;;;;;;;;5074214;28;20215;-78
2023/01/29 09:59:59;;;;;;;53.75;45.67;;;;;;;;;;5074632;28;20184;-78
2023/01/29 10:02:41;;;;;;;60.33;46.50;;;;;;;;;;5073851;28;20261;-78
2023/01/29 10:05:16;;;;;;;45.40;38.85;;;;;;;;;;5074696;28;20228;-78
2023/01/29 10:08:12;;;;;;;39.22;35.22;;;;;;;;;;5074908;28;20239;-78
2023/01/29 10:10:45;;;;;;;51.67;43.17;;;;;;;;;;5075125;28;20204;-77
2023/01/29 10:13:18;;;;;;;53.35;43.97;;;;;;;;;;5074310;28;20269;-78
2023/01/29 10:15:53;;;;;;;53.28;42.40;;;;;;;;;;5074381;28;20229;-78
2023/01/29 10:18:36;;;;;;;46.10;40.40;;;;;;;;;;5074649;28;20194;-76
2023/01/29 10:21:09;;;;;;;53.90;42.78;;;;;;;;;;5074671;28;20193;-76
2023/01/29 10:23:37;;;;;;;52.95;38.95;;;;;;;;;;5073758;28;20728;-77
2023/01/29 10:26:05;;;;;;;47.67;42.55;;;;;;;;;;5073664;28;20236;-77
2023/01/29 10:28:35;;;;;;;51.90;43.17;;;;;;;;;;5074084;28;20213;-78
2023/01/29 10:31:04;;;;;;;51.63;44.15;;;;;;;;;;5074946;28;20216;-87
2023/01/29 10:33:34;;;;;;;51.05;39.70;;;;;;;;;;5073264;28;20257;-77
2023/01/29 10:36:03;;;;;;;47.53;39.08;;;;;;;;;;5073828;28;20220;-77
2023/01/29 10:38:35;;;;;;;52.22;38.17;;;;;;;;;;5073818;28;20740;-78
2023/01/29 10:41:07;;;;;;;50.72;41.85;;;;;;;;;;5074207;28;20193;-77
2023/01/29 10:43:39;;;;;;;51.33;39.40;;;;;;;;;;5073046;28;20201;-76
2023/01/29 10:46:13;;;;;;;33.70;29.58;;;;;;;;;;5073158;28;20232;-76
2023/01/29 10:48:43;;;;;;;36.13;32.38;;;;;;;;;;5073724;28;20210;-77
2023/01/29 10:51:14;;;;;;;50.10;40.70;;;;;;;;;;5073440;28;20231;-77
2023/01/29 10:53:49;;;;;;;42.90;36.33;;;;;;;;;;5073520;28;20222;-77
2023/01/29 10:56:27;;;;;;;55.55;42.10;;;;;;;;;;5073097;28;20226;-77
2023/01/29 10:58:56;;;;;;;51.97;44.05;;;;;;;;;;5073560;28;20562;-76
2023/01/29 11:01:23;;;;;;;48.13;39.72;;;;;;;;;;5072882;28;20659;-78
2023/01/29 11:03:56;;;;;;;51.15;43.85;;;;;;;;;;5073725;28;20204;-76
2023/01/29 11:06:25;;;;;;;42.88;37.50;;;;;;;;;;5073446;28;20230;-77
2023/01/29 11:08:54;;;;;;;59.70;44.28;;;;;;;;;;5075814;28;20299;-78
2023/01/29 11:11:22;;;;;;;37.15;33.50;;;;;;;;;;5072798;28;20578;-79
2023/01/29 11:13:52;;;;;;;51.20;41.63;;;;;;;;;;5072869;28;20229;-77
2023/01/29 11:16:20;;;;;;;50.97;43.95;;;;;;;;;;5073050;28;20284;-78
2023/01/29 11:18:55;;;;;;;49.65;42.10;;;;;;;;;;5073369;28;20205;-78
2023/01/29 11:21:23;;;;;;;51.83;41.38;;;;;;;;;;5072975;28;20239;-79
2023/01/29 11:23:50;;;;;;;41.45;37.10;;;;;;;;;;5073118;28;20201;-78
2023/01/29 11:26:21;;;;;;;36.33;32.58;;;;;;;;;;5072536;28;21036;-78
2023/01/29 11:28:48;;;;;;;49.50;39.92;;;;;;;;;;5072971;28;20717;-78
2023/01/29 11:31:16;;;;;;;56.97;45.28;;;;;;;;;;5072458;28;20443;-78
2023/01/29 11:33:45;;;;;;;48.63;39.35;;;;;;;;;;5074088;28;20906;-80
2023/01/29 11:36:22;;;;;;;42.72;38.22;;;;;;;;;;5072431;28;20224;-77
2023/01/29 11:39:05;;;;;;;37.00;33.08;;;;;;;;;;5073450;28;20211;-79
2023/01/29 11:41:43;;;;;;;44.08;37.75;;;;;;;;;;5072859;28;20250;-78
2023/01/29 11:44:17;;;;;;;43.03;38.33;;;;;;;;;;5073620;28;20232;-79
2023/01/29 11:46:44;;;;;;;41.25;36.67;;;;;;;;;;5074526;28;20205;-79
2023/01/29 11:49:22;;;;;;;49.63;41.53;;;;;;;;;;5074503;28;20617;-79
2023/01/29 11:51:52;;;;;;;45.28;39.75;;;;;;;;;;5072389;28;20213;-78
2023/01/29 11:54:20;;;;;;;45.63;36.97;;;;;;;;;;5074512;28;20227;-77
2023/01/29 11:56:47;;;;;;;46.10;37.38;;;;;;;;;;5076215;28;20210;-78
2023/01/29 11:59:26;;;;;;;41.05;34.45;;;;;;;;;;5076624;28;20548;-78
2023/01/29 12:01:54;;;;;;;51.20;41.53;;;;;;;;;;5075863;28;20217;-78
2023/01/29 12:04:23;;;;;;;49.97;40.45;;;;;;;;;;5077343;28;20235;-79
2023/01/29 12:06:52;;;;;;;47.92;40.47;;;;;;;;;;5078127;28;20205;-79
2023/01/29 12:09:20;;;;;;;40.75;35.28;;;;;;;;;;5078957;28;20206;-78
2023/01/29 12:11:47;;;;;;;37.75;33.72;;;;;;;;;;5076348;28;20203;-78
2023/01/29 12:14:27;;;;;;;39.60;33.55;;;;;;;;;;5076267;28;20585;-79
2023/01/29 12:16:56;;;;;;;44.67;38.72;;;;;;;;;;5076814;28;20205;-77
2023/01/29 12:19:26;;;;;;;47.47;38.38;;;;;;;;;;5077004;28;20607;-78
2023/01/29 12:21:56;;;;;;;42.97;36.30;;;;;;;;;;5076360;28;20184;-79
2023/01/29 12:24:29;;;;;;;45.83;35.95;;;;;;;;;;5076832;28;20201;-79
2023/01/29 12:27:01;;;;;;;44.13;38.47;;;;;;;;;;5076187;28;20219;-78
2023/01/29 12:29:32;;;;;;;39.13;34.67;;;;;;;;;;5076734;28;20692;-78
2023/01/29 12:32:04;;;;;;;42.30;35.35;;;;;;;;;;5076480;28;20220;-78
2023/01/29 12:34:37;;;;;;;43.75;38.88;;;;;;;;;;5090828;28;20229;-79
2023/01/29 12:37:07;;;;;;;32.38;29.63;;;;;;;;;;5096375;28;20205;-79
2023/01/29 12:39:34;;;;;;;38.45;34.45;;;;;;;;;;5096794;28;20679;-78
2023/01/29 12:42:03;;;;;;;37.58;33.58;;;;;;;;;;5096397;28;20195;-78
2023/01/29 12:44:32;;;;;;;43.20;37.35;;;;;;;;;;5096775;28;20220;-78
2023/01/29 12:47:00;;;;;;;40.92;36.67;;;;;;;;;;5097078;28;20212;-79
2023/01/29 12:49:29;;;;;;;32.33;29.08;;;;;;;;;;5096761;28;20213;-79
2023/01/29 12:52:01;;;;;;;37.55;32.33;;;;;;;;;;5096429;28;20204;-79
2023/01/29 12:54:32;;;;;;;33.10;30.02;;;;;;;;;;5096258;28;20225;-79
2023/01/29 12:57:01;;;;;;;37.50;31.75;;;;;;;;;;5096423;28;20196;-79
2023/01/29 12:59:32;;;;;;;44.05;37.42;;;;;;;;;;5096717;28;20208;-79
2023/01/29 13:02:00;;;;;;;40.78;36.63;;;;;;;;;;5095966;28;20259;-79
2023/01/29 13:04:33;;;;;;;43.78;36.20;;;;;;;;;;5096275;28;20225;-79
2023/01/29 13:07:06;;;;;;;39.47;35.53;;;;;;;;;;5094936;28;20694;-78
2023/01/29 13:09:33;;;;;;;38.00;34.03;;;;;;;;;;5096306;28;20188;-78
2023/01/29 13:12:02;;;;;;;44.10;35.83;;;;;;;;;;5095750;28;20667;-79
2023/01/29 13:14:34;;;;;;;44.20;37.33;;;;;;;;;;5096313;28;20232;-79
2023/01/29 13:17:06;;;;;;;47.08;38.65;;;;;;;;;;5095848;28;20205;-78
2023/01/29 13:19:35;;;;;;;38.13;34.42;;;;;;;;;;5096327;28;20193;-79
2023/01/29 13:22:05;;;;;;;51.95;41.75;;;;;;;;;;5095636;28;20267;-78
2023/01/29 13:24:35;;;;;;;44.78;39.10;;;;;;;;;;5096050;28;20228;-79
2023/01/29 13:27:03;;;;;;;47.13;39.25;;;;;;;;;;5095839;28;20335;-79
2023/01/29 13:29:31;;;;;;;43.53;37.42;;;;;;;;;;5095933;28;20196;-78
2023/01/29 13:31:59;;;;;;;53.80;40.15;;;;;;;;;;5095310;28;20261;-78
2023/01/29 13:34:28;;;;;;;43.50;38.90;;;;;;;;;;5095167;28;20246;-79
2023/01/29 13:36:56;;;;;;;43.92;39.10;;;;;;;;;;5095463;28;20214;-78
2023/01/29 13:39:27;;;;;;;28.75;26.10;;;;;;;;;;5095800;28;20208;-78
2023/01/29 13:41:55;;;;;;;34.63;31.50;;;;;;;;;;5095511;28;20245;-79
2023/01/29 13:44:23;;;;;;;44.10;37.60;;;;;;;;;;5095421;28;20200;-79
2023/01/29 13:46:54;;;;;;;44.25;38.00;;;;;;;;;;5095439;28;20240;-79
2023/01/29 13:49:30;;;;;;;51.10;40.70;;;;;;;;;;5095946;28;20187;-78
2023/01/29 13:51:57;;;;;;;40.35;35.80;;;;;;;;;;5095857;28;20192;-78
2023/01/29 13:54:27;;;;;;;39.63;35.53;;;;;;;;;;5095775;28;20562;-79
2023/01/29 13:56:59;;;;;;;37.83;33.97;;;;;;;;;;5095335;28;20235;-78
2023/01/29 13:59:41;;;;;;;35.38;31.38;;;;;;;;;;5095509;28;20689;-78
2023/01/29 14:02:22;;;;;;;32.88;29.90;;;;;;;;;;5093909;28;20690;-78
2023/01/29 14:04:49;;;;;;;42.33;36.50;;;;;;;;;;5095331;28;20277;-78
2023/01/29 14:07:34;;;;;;;47.38;40.25;;;;;;;;;;5095143;28;20265;-79
2023/01/29 14:10:13;;;;;;;37.55;33.45;;;;;;;;;;5095395;28;20207;-79
2023/01/29 14:12:41;;;;;;;51.00;41.25;;;;;;;;;;5094734;28;20191;-78
2023/01/29 14:15:16;;;;;;;39.67;35.45;;;;;;;;;;5094627;28;20223;-78
2023/01/29 14:17:54;;;;;;;44.50;38.17;;;;;;;;;;5094069;28;20341;-78
2023/01/29 14:20:24;;;;;;;40.60;36.17;;;;;;;;;;5095336;28;20197;-79
2023/01/29 14:22:54;;;;;;;39.58;34.40;;;;;;;;;;5093967;28;20736;-78
2023/01/29 14:25:27;;;;;;;47.10;38.45;;;;;;;;;;5094588;28;20295;-78
2023/01/29 14:27:55;;;;;;;42.90;36.22;;;;;;;;;;5094852;28;20182;-79
2023/01/29 14:30:23;;;;;;;46.78;38.58;;;;;;;;;;5095295;28;20614;-79
2023/01/29 14:32:50;;;;;;;48.17;40.58;;;;;;;;;;5094033;28;20218;-78
2023/01/29 14:35:19;;;;;;;38.10;34.30;;;;;;;;;;5095184;28;20294;-78
2023/01/29 14:37:47;;;;;;;47.55;39.00;;;;;;;;;;5094586;28;20203;-78
2023/01/29 14:40:19;;;;;;;41.50;36.92;;;;;;;;;;5094013;28;20207;-79
2023/01/29 14:42:54;;;;;;;47.45;40.25;;;;;;;;;;5094006;28;20211;-77
2023/01/29 14:45:24;;;;;;;32.45;29.73;;;;;;;;;;5094367;28;20219;-77
2023/01/29 14:47:59;;;;;;;39.88;35.92;;;;;;;;;;5094557;28;20188;-78
2023/01/29 14:50:40;;;;;;;42.42;35.83;;;;;;;;;;5094016;28;20608;-79
2023/01/29 14:53:11;;;;;;;35.88;32.17;;;;;;;;;;5093604;28;20270;-78
2023/01/29 14:55:39;;;;;;;29.95;27.35;;;;;;;;;;5093809;28;20703;-78
2023/01/29 14:58:12;;;;;;;31.98;28.75;;;;;;;;;;5094216;28;20246;-78
2023/01/29 15:00:42;;;;;;;44.97;40.08;;;;;;;;;;5094302;28;20192;-78